Time;durP1;ratioP1;P1;durP2;ratioP2;P2;SDS_P1;SDS_P2;PMS_P1;PMS_P2;Temp;Humidity;BMP_temperature;BMP_pressure;BME280_temperature;BME280_humidity;BME280_pressure;Samples;Min_cycle;Max_cycle;Signal;HPM_P1;HPM_P2
2024/01/06 00:00:08;;;;;;;;;;;2.40;99.90;;;;;;4949412;28;20712;-88
2024/01/06 00:02:43;;;;;;;;;;;2.30;99.90;;;;;;4918203;29;20025;-87
2024/01/06 00:05:08;;;;;;;;;;;2.20;99.90;;;;;;4935853;29;19918;-86
2024/01/06 00:07:34;;;;;;;;;;;2.00;99.90;;;;;;4947018;28;20572;-87
2024/01/06 00:10:00;;;;;;;;;;;1.90;99.90;;;;;;4932736;29;19931;-86
2024/01/06 00:12:25;;;;;;;;;;;1.80;99.90;;;;;;4944195;28;19923;-87
2024/01/06 00:14:51;;;;;;;;;;;1.70;99.90;;;;;;4920908;29;19958;-86
2024/01/06 00:17:23;;;;;;;;;;;1.70;99.90;;;;;;4928758;29;19942;-88
2024/01/06 00:19:51;;;;;;;;;;;1.70;99.90;;;;;;4920973;29;19919;-87
2024/01/06 00:22:18;;;;;;;;;;;1.70;99.90;;;;;;4921294;29;19915;-87
2024/01/06 00:24:43;;;;;;;;;;;1.70;99.90;;;;;;4917565;29;19914;-87
2024/01/06 00:27:09;;;;;;;;;;;1.70;99.90;;;;;;4926719;29;20732;-87
2024/01/06 00:29:43;;;;;;;;;;;1.70;99.90;;;;;;4942276;29;20009;-88
2024/01/06 00:32:08;;;;;;;;;;;1.70;99.90;;;;;;4918362;29;19915;-88
2024/01/06 00:34:34;;;;;;;;;;;1.80;99.90;;;;;;4909234;29;19922;-88
2024/01/06 00:37:00;;;;;;;;;;;1.80;99.90;;;;;;4929884;29;19926;-88
2024/01/06 00:39:25;;;;;;;;;;;1.70;99.90;;;;;;4926615;29;19922;-88
2024/01/06 00:41:58;;;;;;;;;;;1.70;99.90;;;;;;4918389;29;19919;-87
2024/01/06 00:44:24;;;;;;;;;;;1.70;99.90;;;;;;4919608;29;19963;-88
2024/01/06 00:46:49;;;;;;;;;;;1.70;99.90;;;;;;4947415;29;20389;-86
2024/01/06 00:49:15;;;;;;;;;;;1.70;99.90;;;;;;4933209;28;19918;-87
2024/01/06 00:51:40;;;;;;;;;;;1.70;99.90;;;;;;4932664;29;19915;-88
2024/01/06 00:54:06;;;;;;;;;;;1.70;99.90;;;;;;4941779;29;19960;-87
2024/01/06 00:56:38;;;;;;;;;;;1.70;99.90;;;;;;4925110;29;19943;-89
2024/01/06 00:59:03;;;;;;;;;;;1.70;99.90;;;;;;4937357;29;19918;-88
2024/01/06 01:01:29;;;;;;;;;;;1.70;99.90;;;;;;4939463;28;19917;-87
2024/01/06 01:03:54;;;;;;;;;;;1.70;99.90;;;;;;4926356;29;20800;-88
2024/01/06 01:06:20;;;;;;;;;;;1.80;99.90;;;;;;4928466;29;19923;-88
2024/01/06 01:08:46;;;;;;;;;;;1.90;99.90;;;;;;4942286;29;20037;-87
2024/01/06 01:11:18;;;;;;;;;;;1.90;99.90;;;;;;4937672;29;19978;-87
2024/01/06 01:13:43;;;;;;;;;;;2.00;99.90;;;;;;4940172;29;19915;-86
2024/01/06 01:16:09;;;;;;;;;;;2.10;99.90;;;;;;4924319;29;19926;-87
2024/01/06 01:18:34;;;;;;;;;;;2.20;99.90;;;;;;4939548;29;19923;-87
2024/01/06 01:21:00;;;;;;;;;;;2.20;99.90;;;;;;4922330;29;20416;-86
2024/01/06 01:23:26;;;;;;;;;;;2.30;99.90;;;;;;4921282;29;19914;-88
2024/01/06 01:25:59;;;;;;;;;;;2.20;99.90;;;;;;4925844;29;19922;-88
2024/01/06 01:28:24;;;;;;;;;;;2.20;99.90;;;;;;4941030;29;20001;-87
2024/01/06 01:30:50;;;;;;;;;;;2.30;99.90;;;;;;4927648;29;19922;-87
2024/01/06 01:33:16;;;;;;;;;;;2.40;99.90;;;;;;4955306;29;20007;-86
2024/01/06 01:35:41;;;;;;;;;;;2.50;99.90;;;;;;4935224;28;19918;-90
2024/01/06 01:38:14;;;;;;;;;;;2.40;99.90;;;;;;4957473;28;19926;-91
2024/01/06 01:40:40;;;;;;;;;;;2.40;99.90;;;;;;4966846;28;19954;-90
2024/01/06 01:43:06;;;;;;;;;;;2.40;99.90;;;;;;4957987;28;19899;-91
2024/01/06 01:45:32;;;;;;;;;;;2.40;99.90;;;;;;4965165;28;19906;-91
2024/01/06 01:47:57;;;;;;;;;;;2.40;99.90;;;;;;4940130;28;20011;-91
2024/01/06 01:50:27;;;;;;;;;;;2.40;99.90;;;;;;4985654;23;19973;-94
2024/01/06 01:52:53;;;;;;;;;;;2.40;99.90;;;;;;4950380;29;19925;-94
2024/01/06 01:55:19;;;;;;;;;;;2.50;99.90;;;;;;4930978;29;20341;-94
2024/01/06 01:57:44;;;;;;;;;;;2.50;99.90;;;;;;4964429;28;19966;-94
2024/01/06 02:00:10;;;;;;;;;;;2.50;99.90;;;;;;4932696;28;19914;-94
2024/01/06 02:02:39;;;;;;;;;;;2.50;99.90;;;;;;4970759;28;19986;-93
2024/01/06 02:05:05;;;;;;;;;;;2.40;99.90;;;;;;4967367;28;19922;-94
2024/01/06 02:07:31;;;;;;;;;;;2.40;99.90;;;;;;4967852;28;19915;-94
2024/01/06 02:09:57;;;;;;;;;;;2.30;99.90;;;;;;4969368;28;20025;-93
2024/01/06 02:12:23;;;;;;;;;;;2.20;99.90;;;;;;4976493;28;19995;-93
2024/01/06 02:14:49;;;;;;;;;;;2.20;99.90;;;;;;4966293;28;19911;-93
2024/01/06 02:17:15;;;;;;;;;;;2.10;99.90;;;;;;4969474;28;19929;-93
2024/01/06 02:19:41;;;;;;;;;;;2.20;99.90;;;;;;4962654;28;19914;-95
2024/01/06 02:22:07;;;;;;;;;;;2.20;99.90;;;;;;4936985;29;19961;-94
2024/01/06 02:24:33;;;;;;;;;;;2.20;99.90;;;;;;4946406;29;19918;-94
2024/01/06 02:26:59;;;;;;;;;;;2.20;99.90;;;;;;4956420;28;20317;-94
2024/01/06 02:29:25;;;;;;;;;;;2.30;99.90;;;;;;4946220;28;19918;-94
2024/01/06 02:31:53;;;;;;;;;;;2.30;99.90;;;;;;4967829;28;19914;-94
2024/01/06 02:34:19;;;;;;;;;;;2.30;99.90;;;;;;4953893;29;20302;-94
2024/01/06 02:36:45;;;;;;;;;;;2.30;99.90;;;;;;4971999;28;19911;-94
2024/01/06 02:39:11;;;;;;;;;;;2.40;99.90;;;;;;4961686;28;19914;-94
2024/01/06 02:41:37;;;;;;;;;;;2.40;99.90;;;;;;4971867;28;19919;-94
2024/01/06 02:44:04;;;;;;;;;;;2.40;99.90;;;;;;4970010;28;19990;-94
2024/01/06 02:46:29;;;;;;;;;;;2.40;99.90;;;;;;4956497;28;19922;-94
2024/01/06 02:48:58;;;;;;;;;;;2.40;99.90;;;;;;4958405;28;19926;-94
2024/01/06 02:51:24;;;;;;;;;;;2.50;99.90;;;;;;4962212;28;19925;-94
2024/01/06 02:53:50;;;;;;;;;;;2.50;99.90;;;;;;4976375;28;19914;-94
2024/01/06 02:56:16;;;;;;;;;;;2.50;99.90;;;;;;4958210;28;19914;-94
2024/01/06 02:58:42;;;;;;;;;;;2.50;99.90;;;;;;4970841;28;19910;-94
2024/01/06 03:01:08;;;;;;;;;;;2.60;99.90;;;;;;4951401;29;19997;-94
2024/01/06 03:03:34;;;;;;;;;;;2.60;99.90;;;;;;4941515;28;19914;-94
2024/01/06 03:06:00;;;;;;;;;;;2.60;99.90;;;;;;4977982;28;20343;-93
2024/01/06 03:08:27;;;;;;;;;;;2.70;99.90;;;;;;4952848;28;19922;-94
2024/01/06 03:10:53;;;;;;;;;;;2.60;99.90;;;;;;4976498;28;19922;-94
2024/01/06 03:13:18;;;;;;;;;;;2.60;99.90;;;;;;4968149;28;19920;-94
2024/01/06 03:15:44;;;;;;;;;;;2.60;99.90;;;;;;4969614;28;20004;-94
2024/01/06 03:18:11;;;;;;;;;;;2.60;99.90;;;;;;4972443;28;19920;-95
2024/01/06 03:20:37;;;;;;;;;;;2.60;99.90;;;;;;4968450;28;19922;-93
2024/01/06 03:23:03;;;;;;;;;;;2.60;99.90;;;;;;4952692;29;19914;-94
2024/01/06 03:25:28;;;;;;;;;;;2.50;99.90;;;;;;4935365;28;19915;-94
2024/01/06 03:27:54;;;;;;;;;;;2.50;99.90;;;;;;4948019;28;19923;-94
2024/01/06 03:30:20;;;;;;;;;;;2.50;99.90;;;;;;4937953;28;20323;-94
2024/01/06 03:32:46;;;;;;;;;;;2.40;99.90;;;;;;4954079;28;20263;-94
2024/01/06 03:35:12;;;;;;;;;;;2.40;99.90;;;;;;4950989;29;19925;-93
2024/01/06 03:37:37;;;;;;;;;;;2.40;99.90;;;;;;4942331;28;19942;-94
2024/01/06 03:40:03;;;;;;;;;;;2.40;99.90;;;;;;4967797;28;19926;-95
2024/01/06 03:42:29;;;;;;;;;;;2.40;99.90;;;;;;4938345;28;19914;-95
2024/01/06 03:45:04;;;;;;;;;;;2.30;99.90;;;;;;4970788;28;19942;-94
2024/01/06 03:47:30;;;;;;;;;;;2.30;99.90;;;;;;4939637;28;19915;-93
2024/01/06 03:49:56;;;;;;;;;;;2.20;99.90;;;;;;4941678;29;20405;-94
2024/01/06 03:52:22;;;;;;;;;;;2.20;99.90;;;;;;4960590;28;19922;-95
2024/01/06 03:54:48;;;;;;;;;;;2.20;99.90;;;;;;4977080;28;19915;-94
2024/01/06 03:57:14;;;;;;;;;;;2.20;99.90;;;;;;4956531;28;19922;-94
2024/01/06 03:59:40;;;;;;;;;;;2.10;99.90;;;;;;4942200;28;19966;-94
2024/01/06 04:02:05;;;;;;;;;;;2.20;99.90;;;;;;4950047;28;19923;-93
2024/01/06 04:04:31;;;;;;;;;;;2.10;99.90;;;;;;4943012;28;20005;-94
2024/01/06 04:06:57;;;;;;;;;;;2.10;99.90;;;;;;4968039;28;19919;-95
2024/01/06 04:09:23;;;;;;;;;;;2.20;99.90;;;;;;4963156;28;19993;-94
2024/01/06 04:15:11;;;;;;;;;;;2.20;99.90;;;;;;4972406;28;20401;-93
2024/01/06 04:17:37;;;;;;;;;;;2.20;99.90;;;;;;4939905;28;19914;-94
2024/01/06 04:20:04;;;;;;;;;;;2.10;99.90;;;;;;4971698;28;19926;-94
2024/01/06 04:22:30;;;;;;;;;;;2.20;99.90;;;;;;4939167;29;19915;-94
2024/01/06 04:24:57;;;;;;;;;;;2.20;99.90;;;;;;4971741;28;19919;-95
2024/01/06 04:27:25;;;;;;;;;;;2.30;99.90;;;;;;4945596;28;20394;-93
2024/01/06 04:30:03;;;;;;;;;;;2.30;99.90;;;;;;4969455;28;19942;-94
2024/01/06 04:32:29;;;;;;;;;;;2.30;99.90;;;;;;4939893;29;19918;-94
2024/01/06 04:34:57;;;;;;;;;;;2.20;99.90;;;;;;4955281;29;19925;-94
2024/01/06 04:37:26;;;;;;;;;;;2.20;99.90;;;;;;4958607;28;19921;-94
2024/01/06 04:39:52;;;;;;;;;;;2.10;99.90;;;;;;4964956;28;19914;-93
2024/01/06 04:42:19;;;;;;;;;;;2.20;99.90;;;;;;4967805;28;19914;-94
2024/01/06 04:44:45;;;;;;;;;;;2.20;99.90;;;;;;4965321;28;19973;-94
2024/01/06 04:47:11;;;;;;;;;;;2.20;99.90;;;;;;4963735;28;19942;-94
2024/01/06 04:49:37;;;;;;;;;;;2.20;99.90;;;;;;4949530;29;19986;-95
2024/01/06 04:52:03;;;;;;;;;;;2.20;99.90;;;;;;4952496;29;20005;-94
2024/01/06 04:54:29;;;;;;;;;;;2.20;99.90;;;;;;4953281;29;19937;-94
2024/01/06 04:56:55;;;;;;;;;;;2.10;99.90;;;;;;4941429;29;19962;-94
2024/01/06 04:59:21;;;;;;;;;;;2.20;99.90;;;;;;4931634;29;19914;-94
2024/01/06 05:01:47;;;;;;;;;;;2.20;99.90;;;;;;4936973;29;19970;-94
2024/01/06 05:04:13;;;;;;;;;;;2.30;99.90;;;;;;4967046;28;19969;-94
2024/01/06 05:06:38;;;;;;;;;;;2.30;99.90;;;;;;4936412;28;19915;-94
2024/01/06 05:09:04;;;;;;;;;;;2.30;99.90;;;;;;4960416;29;19969;-94
2024/01/06 05:11:30;;;;;;;;;;;2.30;99.90;;;;;;4933431;28;19950;-94
2024/01/06 05:13:56;;;;;;;;;;;2.30;99.90;;;;;;4946013;29;20375;-95
2024/01/06 05:16:22;;;;;;;;;;;2.30;99.90;;;;;;4966432;28;19965;-94
2024/01/06 05:18:47;;;;;;;;;;;2.30;99.90;;;;;;4950371;28;20377;-93
2024/01/06 05:21:13;;;;;;;;;;;2.30;99.90;;;;;;4973740;28;19969;-93
2024/01/06 05:23:39;;;;;;;;;;;2.30;99.90;;;;;;4974234;28;19921;-93
2024/01/06 05:26:05;;;;;;;;;;;2.40;99.90;;;;;;4950635;29;19915;-95
2024/01/06 05:28:31;;;;;;;;;;;2.40;99.90;;;;;;4935649;28;19914;-94
2024/01/06 05:30:57;;;;;;;;;;;2.40;99.90;;;;;;4967598;28;19919;-93
2024/01/06 05:33:23;;;;;;;;;;;2.40;99.90;;;;;;4964527;28;19926;-94
2024/01/06 05:35:49;;;;;;;;;;;2.40;99.90;;;;;;4939727;29;19961;-94
2024/01/06 05:38:17;;;;;;;;;;;2.40;99.90;;;;;;4936314;28;19966;-95
2024/01/06 05:40:42;;;;;;;;;;;2.40;99.90;;;;;;4967595;28;19922;-94
2024/01/06 05:43:08;;;;;;;;;;;2.40;99.90;;;;;;4965258;28;19914;-94
2024/01/06 05:45:34;;;;;;;;;;;2.40;99.90;;;;;;4935266;28;19922;-94
2024/01/06 05:48:00;;;;;;;;;;;2.40;99.90;;;;;;4963407;28;19914;-93
2024/01/06 05:50:26;;;;;;;;;;;2.40;99.90;;;;;;4964987;28;19918;-94
2024/01/06 05:52:52;;;;;;;;;;;2.30;99.90;;;;;;4966533;28;19922;-94
2024/01/06 05:55:17;;;;;;;;;;;2.30;99.90;;;;;;4959470;28;19978;-94
2024/01/06 05:57:43;;;;;;;;;;;2.30;99.90;;;;;;4956685;28;19918;-94
2024/01/06 06:00:11;;;;;;;;;;;2.30;99.90;;;;;;4961058;28;19937;-94
2024/01/06 06:02:57;;;;;;;;;;;2.30;99.90;;;;;;4968138;28;19921;-94
2024/01/06 06:05:23;;;;;;;;;;;2.30;99.90;;;;;;4967518;28;19922;-94
2024/01/06 06:07:52;;;;;;;;;;;2.40;99.90;;;;;;4940156;29;19922;-94
2024/01/06 06:10:20;;;;;;;;;;;2.40;99.90;;;;;;4979087;28;19918;-94
2024/01/06 06:12:47;;;;;;;;;;;2.40;99.90;;;;;;4940407;28;19914;-94
2024/01/06 06:15:13;;;;;;;;;;;2.40;99.90;;;;;;4953022;28;19922;-95
2024/01/06 06:18:04;;;;;;;;;;;2.40;99.90;;;;;;4936770;29;19938;-94
2024/01/06 06:20:30;;;;;;;;;;;2.40;99.90;;;;;;4933755;29;19914;-94
2024/01/06 06:23:02;;;;;;;;;;;2.40;99.90;;;;;;4938662;29;19918;-94
2024/01/06 06:25:28;;;;;;;;;;;2.40;99.90;;;;;;4941116;29;19915;-94
2024/01/06 06:27:54;;;;;;;;;;;2.40;99.90;;;;;;4938651;28;19933;-94
2024/01/06 06:30:19;;;;;;;;;;;2.40;99.90;;;;;;4940581;29;19966;-94
2024/01/06 06:32:46;;;;;;;;;;;2.50;99.90;;;;;;4977823;28;19914;-94
2024/01/06 06:35:12;;;;;;;;;;;2.40;99.90;;;;;;4952175;29;19915;-94
2024/01/06 06:37:38;;;;;;;;;;;2.40;99.90;;;;;;4953080;28;19947;-94
2024/01/06 06:40:04;;;;;;;;;;;2.40;99.90;;;;;;4945466;29;19942;-94
2024/01/06 06:42:39;;;;;;;;;;;2.50;99.90;;;;;;4951985;28;19922;-95
2024/01/06 06:45:22;;;;;;;;;;;2.40;99.90;;;;;;4941912;29;19914;-94
2024/01/06 06:47:49;;;;;;;;;;;2.40;99.90;;;;;;4945427;29;19906;-94
2024/01/06 06:50:18;;;;;;;;;;;2.40;99.90;;;;;;4944551;29;20312;-94
2024/01/06 06:52:44;;;;;;;;;;;2.40;99.90;;;;;;4957664;28;19925;-92
2024/01/06 06:55:10;;;;;;;;;;;2.50;99.90;;;;;;4957090;28;20005;-94
2024/01/06 06:57:36;;;;;;;;;;;2.40;99.90;;;;;;4963337;28;19914;-94
2024/01/06 07:00:01;;;;;;;;;;;2.40;99.90;;;;;;4926753;28;20366;-93
2024/01/06 07:02:27;;;;;;;;;;;2.40;99.90;;;;;;4951951;29;19922;-94
2024/01/06 07:04:53;;;;;;;;;;;2.40;99.90;;;;;;4937838;28;19981;-94
2024/01/06 07:07:19;;;;;;;;;;;2.50;99.90;;;;;;4947117;28;19914;-93
2024/01/06 07:09:45;;;;;;;;;;;2.30;99.90;;;;;;4942510;28;19943;-94
2024/01/06 07:12:11;;;;;;;;;;;2.50;99.90;;;;;;4968313;28;19966;-93
2024/01/06 07:14:37;;;;;;;;;;;2.50;99.90;;;;;;4941928;28;19915;-94
2024/01/06 07:17:04;;;;;;;;;;;2.50;99.90;;;;;;4951567;29;19919;-94
2024/01/06 07:19:31;;;;;;;;;;;2.40;99.90;;;;;;4974281;28;19938;-94
2024/01/06 07:21:57;;;;;;;;;;;2.50;99.90;;;;;;4932395;28;19922;-89
2024/01/06 07:24:23;;;;;;;;;;;2.50;99.90;;;;;;4937979;28;19969;-89
2024/01/06 07:26:49;;;;;;;;;;;2.50;99.90;;;;;;4925955;28;19972;-89
2024/01/06 07:29:15;;;;;;;;;;;2.50;99.90;;;;;;4940455;29;19910;-89
2024/01/06 07:31:43;;;;;;;;;;;2.50;99.90;;;;;;4926614;28;20252;-89
2024/01/06 07:34:08;;;;;;;;;;;2.50;99.90;;;;;;4933849;29;19914;-88
2024/01/06 07:36:34;;;;;;;;;;;2.50;99.90;;;;;;4950723;28;20685;-89
2024/01/06 07:39:00;;;;;;;;;;;2.50;99.90;;;;;;4954680;28;19918;-89
2024/01/06 07:41:25;;;;;;;;;;;2.40;99.90;;;;;;4942259;28;19918;-89
2024/01/06 07:43:51;;;;;;;;;;;2.40;99.90;;;;;;4949981;28;19914;-89
2024/01/06 07:46:17;;;;;;;;;;;2.40;99.90;;;;;;4938358;28;19911;-88
2024/01/06 07:48:42;;;;;;;;;;;2.40;99.90;;;;;;4926300;28;19919;-89
2024/01/06 07:51:08;;;;;;;;;;;2.40;99.90;;;;;;4952881;28;20009;-89
2024/01/06 07:53:34;;;;;;;;;;;2.40;99.90;;;;;;4923516;28;20065;-89
2024/01/06 07:55:59;;;;;;;;;;;2.40;99.90;;;;;;4940173;28;19955;-89
2024/01/06 07:58:25;;;;;;;;;;;2.40;99.90;;;;;;4925457;28;20430;-89
2024/01/06 08:00:51;;;;;;;;;;;2.40;99.90;;;;;;4949370;28;19911;-88
2024/01/06 08:03:17;;;;;;;;;;;2.40;99.90;;;;;;4944178;28;19914;-89
2024/01/06 08:05:42;;;;;;;;;;;2.40;99.90;;;;;;4941972;28;20165;-89
2024/01/06 08:08:08;;;;;;;;;;;2.50;99.90;;;;;;4952019;28;19914;-89
2024/01/06 08:10:34;;;;;;;;;;;2.40;99.90;;;;;;4937858;28;19930;-89
2024/01/06 08:13:00;;;;;;;;;;;2.50;99.90;;;;;;4939085;28;19965;-88
2024/01/06 08:15:26;;;;;;;;;;;2.50;99.90;;;;;;4943327;28;19925;-88
2024/01/06 08:17:51;;;;;;;;;;;2.50;99.90;;;;;;4935999;28;19923;-89
2024/01/06 08:20:17;;;;;;;;;;;2.60;99.90;;;;;;4953361;28;20533;-88
2024/01/06 08:22:43;;;;;;;;;;;2.60;99.90;;;;;;4959919;28;19925;-89
2024/01/06 08:25:09;;;;;;;;;;;2.60;99.90;;;;;;4958089;28;19914;-89
2024/01/06 08:27:35;;;;;;;;;;;2.60;99.90;;;;;;4958591;28;20289;-89
2024/01/06 08:30:00;;;;;;;;;;;2.70;99.90;;;;;;4936509;28;19973;-89
2024/01/06 08:32:26;;;;;;;;;;;2.70;99.90;;;;;;4926062;28;19914;-87
2024/01/06 08:34:52;;;;;;;;;;;2.60;99.90;;;;;;4937024;28;19914;-88
2024/01/06 08:37:17;;;;;;;;;;;2.70;99.90;;;;;;4939406;28;19926;-88
2024/01/06 08:39:43;;;;;;;;;;;2.80;99.90;;;;;;4946094;29;19922;-88
2024/01/06 08:42:09;;;;;;;;;;;2.80;99.90;;;;;;4927502;28;19918;-90
2024/01/06 08:44:34;;;;;;;;;;;2.80;99.90;;;;;;4940278;28;19922;-88
2024/01/06 08:47:00;;;;;;;;;;;2.80;99.90;;;;;;4933387;28;19918;-89
2024/01/06 08:49:25;;;;;;;;;;;2.80;99.90;;;;;;4921551;28;19923;-88
2024/01/06 08:51:51;;;;;;;;;;;2.80;99.90;;;;;;4937785;28;19914;-89
2024/01/06 08:54:26;;;;;;;;;;;2.90;99.90;;;;;;4950290;28;20290;-88
2024/01/06 08:56:51;;;;;;;;;;;3.00;99.90;;;;;;4922500;29;20335;-88
2024/01/06 08:59:17;;;;;;;;;;;3.00;99.90;;;;;;4953880;28;19918;-88
2024/01/06 09:01:43;;;;;;;;;;;3.10;99.90;;;;;;4935394;28;19925;-89
2024/01/06 09:04:11;;;;;;;;;;;3.10;99.90;;;;;;4947044;29;20627;-88
2024/01/06 09:06:36;;;;;;;;;;;3.10;99.90;;;;;;4960966;28;19914;-88
2024/01/06 09:09:02;;;;;;;;;;;3.10;99.90;;;;;;4943016;28;20453;-87
2024/01/06 09:11:28;;;;;;;;;;;3.10;99.90;;;;;;4942249;29;19922;-88
2024/01/06 09:13:53;;;;;;;;;;;3.00;99.90;;;;;;4936922;28;19922;-89
2024/01/06 09:16:19;;;;;;;;;;;3.10;99.90;;;;;;4954116;28;19926;-88
2024/01/06 09:18:45;;;;;;;;;;;3.10;99.90;;;;;;4953487;28;19915;-89
2024/01/06 09:21:11;;;;;;;;;;;3.20;99.90;;;;;;4953432;28;19933;-88
2024/01/06 09:23:36;;;;;;;;;;;3.20;99.90;;;;;;4954144;28;19915;-89
2024/01/06 09:26:02;;;;;;;;;;;3.20;99.90;;;;;;4960171;28;19922;-88
2024/01/06 09:28:28;;;;;;;;;;;3.40;99.90;;;;;;4948027;28;19918;-89
2024/01/06 09:30:55;;;;;;;;;;;3.60;99.90;;;;;;4962481;28;19925;-88
2024/01/06 09:33:22;;;;;;;;;;;3.60;99.90;;;;;;4968977;28;20267;-87
2024/01/06 09:35:47;;;;;;;;;;;3.60;99.90;;;;;;4948069;29;19961;-88
2024/01/06 09:38:13;;;;;;;;;;;3.60;99.90;;;;;;4930201;28;19929;-89
2024/01/06 09:40:45;;;;;;;;;;;3.50;99.90;;;;;;4928124;29;19914;-89
2024/01/06 09:43:11;;;;;;;;;;;3.30;99.90;;;;;;4953349;28;19918;-88
2024/01/06 09:45:39;;;;;;;;;;;3.30;99.90;;;;;;4921886;29;19910;-88
2024/01/06 09:48:15;;;;;;;;;;;3.30;99.90;;;;;;4954067;28;19954;-88
2024/01/06 09:50:41;;;;;;;;;;;3.30;99.90;;;;;;4953245;28;19918;-89
2024/01/06 09:53:11;;;;;;;;;;;3.40;99.90;;;;;;4936076;29;19918;-88
2024/01/06 09:55:36;;;;;;;;;;;3.40;99.90;;;;;;4953047;28;20608;-88
2024/01/06 09:58:02;;;;;;;;;;;3.60;99.90;;;;;;4921605;29;19918;-88
2024/01/06 10:00:28;;;;;;;;;;;3.60;99.90;;;;;;4952608;28;19921;-88
2024/01/06 10:02:54;;;;;;;;;;;3.50;99.90;;;;;;4953568;28;19973;-88
2024/01/06 10:05:21;;;;;;;;;;;3.50;99.90;;;;;;4953463;28;19914;-88
2024/01/06 10:07:46;;;;;;;;;;;3.50;99.90;;;;;;4921957;29;19962;-88
2024/01/06 10:10:12;;;;;;;;;;;3.50;99.90;;;;;;4923855;28;19973;-89
2024/01/06 10:12:39;;;;;;;;;;;3.40;99.90;;;;;;4937575;29;19921;-88
2024/01/06 10:15:06;;;;;;;;;;;3.50;99.90;;;;;;4952308;28;20005;-89
2024/01/06 10:17:32;;;;;;;;;;;3.40;99.90;;;;;;4943269;29;19919;-88
2024/01/06 10:19:59;;;;;;;;;;;3.50;99.90;;;;;;4952866;28;20259;-89
2024/01/06 10:22:24;;;;;;;;;;;3.50;99.90;;;;;;4953174;28;19970;-88
2024/01/06 10:24:50;;;;;;;;;;;3.50;99.90;;;;;;4958543;28;19958;-88
2024/01/06 10:27:16;;;;;;;;;;;3.40;99.90;;;;;;4925380;29;19915;-88
2024/01/06 10:29:42;;;;;;;;;;;3.40;99.90;;;;;;4953438;28;19942;-88
2024/01/06 10:32:08;;;;;;;;;;;3.30;99.90;;;;;;4937641;29;19914;-88
2024/01/06 10:34:36;;;;;;;;;;;3.40;99.90;;;;;;4953089;28;19922;-89
2024/01/06 10:37:02;;;;;;;;;;;3.40;99.90;;;;;;4927446;28;19922;-90
2024/01/06 10:39:29;;;;;;;;;;;3.50;99.90;;;;;;4954779;28;20394;-88
2024/01/06 10:41:55;;;;;;;;;;;3.40;99.90;;;;;;4932612;29;20422;-88
2024/01/06 10:44:21;;;;;;;;;;;3.50;99.90;;;;;;4956362;28;20017;-88
2024/01/06 10:46:47;;;;;;;;;;;3.40;99.90;;;;;;4925016;29;19916;-89
2024/01/06 10:49:14;;;;;;;;;;;3.40;99.90;;;;;;4956226;28;20136;-88
2024/01/06 10:51:40;;;;;;;;;;;3.50;99.90;;;;;;4924808;29;19922;-89
2024/01/06 10:54:05;;;;;;;;;;;3.70;99.90;;;;;;4956413;28;19915;-88
2024/01/06 10:56:36;;;;;;;;;;;3.70;99.90;;;;;;4924690;29;20013;-89
2024/01/06 10:59:03;;;;;;;;;;;3.80;99.90;;;;;;4955879;28;19922;-89
2024/01/06 11:01:29;;;;;;;;;;;3.80;99.90;;;;;;4940766;29;19918;-89
2024/01/06 11:03:55;;;;;;;;;;;3.80;99.90;;;;;;4956636;28;19919;-88
2024/01/06 11:06:21;;;;;;;;;;;3.80;99.90;;;;;;4924658;29;19915;-88
2024/01/06 11:09:01;;;;;;;;;;;3.70;99.90;;;;;;4955992;28;19969;-88
2024/01/06 11:11:27;;;;;;;;;;;3.80;99.90;;;;;;4953723;28;20017;-89
2024/01/06 11:14:10;;;;;;;;;;;4.00;99.90;;;;;;4943201;29;20017;-88
2024/01/06 11:16:36;;;;;;;;;;;4.00;99.90;;;;;;4936701;28;19914;-88
2024/01/06 11:19:02;;;;;;;;;;;4.10;99.90;;;;;;4940281;29;19950;-87
2024/01/06 11:21:32;;;;;;;;;;;4.20;99.90;;;;;;4939823;29;19949;-88
2024/01/06 11:24:04;;;;;;;;;;;4.10;99.90;;;;;;4936566;29;19918;-89
2024/01/06 11:26:30;;;;;;;;;;;4.20;99.90;;;;;;4956437;28;19948;-89
2024/01/06 11:28:58;;;;;;;;;;;4.20;99.90;;;;;;4923658;29;19922;-88
2024/01/06 11:31:23;;;;;;;;;;;4.20;99.90;;;;;;4940153;28;19993;-89
2024/01/06 11:33:50;;;;;;;;;;;4.20;99.90;;;;;;4929874;29;19982;-87
2024/01/06 11:36:16;;;;;;;;;;;4.10;99.90;;;;;;4955519;28;19961;-89
2024/01/06 11:38:46;;;;;;;;;;;4.00;99.90;;;;;;4948297;29;19918;-89
2024/01/06 11:41:31;;;;;;;;;;;3.90;99.90;;;;;;4955632;28;20362;-89
2024/01/06 11:44:06;;;;;;;;;;;4.00;99.90;;;;;;4939136;29;19923;-88
2024/01/06 11:46:32;;;;;;;;;;;4.10;99.90;;;;;;4955271;28;19915;-88
2024/01/06 11:48:57;;;;;;;;;;;4.20;99.90;;;;;;4955647;28;20389;-89
2024/01/06 11:51:23;;;;;;;;;;;4.30;99.90;;;;;;4954707;28;20385;-89
2024/01/06 11:53:49;;;;;;;;;;;4.30;99.90;;;;;;4955812;28;20372;-89
2024/01/06 11:56:16;;;;;;;;;;;4.30;99.90;;;;;;4939156;29;20457;-88
2024/01/06 11:58:42;;;;;;;;;;;4.40;99.90;;;;;;4955124;28;19918;-89
2024/01/06 12:01:07;;;;;;;;;;;4.40;99.90;;;;;;4955064;28;19915;-89
2024/01/06 12:03:33;;;;;;;;;;;4.50;99.90;;;;;;4956248;28;19923;-89
2024/01/06 12:06:00;;;;;;;;;;;4.60;99.90;;;;;;4955003;28;19919;-88
2024/01/06 12:08:26;;;;;;;;;;;4.50;99.90;;;;;;4923536;29;19977;-89
2024/01/06 12:11:01;;;;;;;;;;;4.70;99.90;;;;;;4955096;28;19922;-88
2024/01/06 12:13:26;;;;;;;;;;;4.60;99.90;;;;;;4923252;28;19914;-89
2024/01/06 12:15:52;;;;;;;;;;;4.50;99.90;;;;;;4929829;29;19918;-89
2024/01/06 12:18:18;;;;;;;;;;;4.60;99.90;;;;;;4954806;28;20290;-88
2024/01/06 12:20:45;;;;;;;;;;;4.40;99.90;;;;;;4922821;29;19922;-89
2024/01/06 12:23:10;;;;;;;;;;;4.40;99.90;;;;;;4938945;28;20287;-88
2024/01/06 12:25:36;;;;;;;;;;;4.40;99.90;;;;;;4938738;29;19914;-88
2024/01/06 12:28:02;;;;;;;;;;;4.50;99.90;;;;;;4938998;28;20366;-88
2024/01/06 12:30:30;;;;;;;;;;;4.40;99.90;;;;;;4922777;29;19974;-89
2024/01/06 12:33:01;;;;;;;;;;;4.40;99.90;;;;;;4938404;28;19922;-88
2024/01/06 12:35:26;;;;;;;;;;;4.40;99.90;;;;;;4927249;29;19918;-89
2024/01/06 12:37:52;;;;;;;;;;;4.60;99.90;;;;;;4956357;28;20383;-89
2024/01/06 12:40:19;;;;;;;;;;;4.60;99.90;;;;;;4923269;29;19925;-89
2024/01/06 12:42:45;;;;;;;;;;;4.50;99.90;;;;;;4954400;28;20278;-89
2024/01/06 12:45:11;;;;;;;;;;;4.40;99.90;;;;;;4931795;29;19921;-88
2024/01/06 12:47:36;;;;;;;;;;;4.30;99.90;;;;;;4938554;28;20366;-89
2024/01/06 12:50:04;;;;;;;;;;;4.30;99.90;;;;;;4926688;29;19950;-88
2024/01/06 12:52:29;;;;;;;;;;;4.30;99.90;;;;;;4954638;28;19915;-89
2024/01/06 12:54:55;;;;;;;;;;;4.20;99.90;;;;;;4922506;29;19923;-89
2024/01/06 12:57:21;;;;;;;;;;;4.20;99.90;;;;;;4954431;28;19919;-88
2024/01/06 12:59:46;;;;;;;;;;;4.30;99.90;;;;;;4938306;29;19919;-89
2024/01/06 13:02:12;;;;;;;;;;;4.30;99.90;;;;;;4953872;28;20374;-88
2024/01/06 13:04:38;;;;;;;;;;;4.40;99.90;;;;;;4954568;28;19915;-88
2024/01/06 13:07:06;;;;;;;;;;;4.30;99.90;;;;;;4938432;28;19918;-89
2024/01/06 13:09:40;;;;;;;;;;;4.30;99.90;;;;;;4922209;29;19915;-89
2024/01/06 13:12:06;;;;;;;;;;;4.30;99.90;;;;;;4954105;28;19922;-89
2024/01/06 13:14:32;;;;;;;;;;;4.30;99.90;;;;;;4922537;29;20358;-88
2024/01/06 13:16:57;;;;;;;;;;;4.30;99.90;;;;;;4954132;28;19981;-88
2024/01/06 13:19:23;;;;;;;;;;;4.30;99.90;;;;;;4922471;29;19918;-89
2024/01/06 13:22:23;;;;;;;;;;;4.30;99.90;;;;;;4952878;28;19918;-89
2024/01/06 13:28:17;;;;;;;;;;;4.30;99.90;;;;;;4951781;28;20013;-88
2024/01/06 13:30:43;;;;;;;;;;;4.20;99.90;;;;;;4934187;28;19961;-88
2024/01/06 13:33:10;;;;;;;;;;;4.20;99.90;;;;;;4950328;28;22589;-88
2024/01/06 13:35:37;;;;;;;;;;;4.40;99.90;;;;;;4937861;28;19993;-89
2024/01/06 13:38:06;;;;;;;;;;;4.40;99.90;;;;;;4922692;29;19924;-88
2024/01/06 13:40:31;;;;;;;;;;;4.50;99.90;;;;;;4922438;29;20702;-88
2024/01/06 13:42:58;;;;;;;;;;;4.50;99.90;;;;;;4953352;28;19915;-88
2024/01/06 13:45:24;;;;;;;;;;;4.50;99.90;;;;;;4940445;29;19965;-89
2024/01/06 13:47:50;;;;;;;;;;;4.50;99.90;;;;;;4937890;29;19914;-88
2024/01/06 13:50:16;;;;;;;;;;;4.50;99.90;;;;;;4921848;29;20381;-88
2024/01/06 13:52:42;;;;;;;;;;;4.50;99.90;;;;;;4921423;29;19978;-88
2024/01/06 13:55:08;;;;;;;;;;;4.60;99.90;;;;;;4952834;28;19922;-88
2024/01/06 13:57:34;;;;;;;;;;;4.60;99.90;;;;;;4922149;29;19923;-89
2024/01/06 13:59:59;;;;;;;;;;;4.40;99.90;;;;;;4952988;28;19926;-88
2024/01/06 14:02:25;;;;;;;;;;;4.30;99.90;;;;;;4923602;29;20290;-88
2024/01/06 14:04:51;;;;;;;;;;;4.30;99.90;;;;;;4953140;28;19915;-88
2024/01/06 14:07:21;;;;;;;;;;;4.30;99.90;;;;;;4921562;29;19989;-88
2024/01/06 14:09:47;;;;;;;;;;;4.30;99.90;;;;;;4937461;29;19969;-88
2024/01/06 14:12:13;;;;;;;;;;;4.30;99.90;;;;;;4928088;29;19972;-88
2024/01/06 14:14:48;;;;;;;;;;;4.30;99.90;;;;;;4956168;28;19914;-88
2024/01/06 14:17:14;;;;;;;;;;;4.40;99.90;;;;;;4957702;28;19922;-88
2024/01/06 14:19:39;;;;;;;;;;;4.50;99.90;;;;;;4957410;28;19922;-88
2024/01/06 14:22:05;;;;;;;;;;;4.30;99.90;;;;;;4957528;28;19915;-88
2024/01/06 14:24:31;;;;;;;;;;;4.20;99.90;;;;;;4957312;28;19921;-88
2024/01/06 14:26:57;;;;;;;;;;;4.20;99.90;;;;;;4957598;28;19936;-89
2024/01/06 14:29:23;;;;;;;;;;;4.20;99.90;;;;;;4957221;28;19918;-89
2024/01/06 14:31:48;;;;;;;;;;;4.10;99.90;;;;;;4942013;29;20551;-87
2024/01/06 14:34:14;;;;;;;;;;;4.10;99.90;;;;;;4941600;29;19926;-89